Time;durP1;ratioP1;P1;durP2;ratioP2;P2;SDS_P1;SDS_P2;PMS_P1;PMS_P2;Temp;Humidity;BMP_temperature;BMP_pressure;BME280_temperature;BME280_humidity;BME280_pressure;Samples;Min_cycle;Max_cycle;Signal;HPM_P1;HPM_P2
2022/04/27 03:01:52;;;;;;;13.07;7.82;;;7.00;99.90;;;;;;5376050;23;20493;-81
2022/04/27 03:04:17;;;;;;;19.23;7.43;;;7.00;99.90;;;;;;5012480;28;20077;-80
2022/04/27 03:06:43;;;;;;;11.70;7.22;;;7.00;99.90;;;;;;5011691;28;20042;-81
2022/04/27 03:09:09;;;;;;;13.45;7.72;;;7.00;99.90;;;;;;4999098;28;20473;-81
2022/04/27 03:11:34;;;;;;;16.67;8.45;;;7.00;99.90;;;;;;5015400;28;20044;-81
2022/04/27 03:14:00;;;;;;;14.48;7.18;;;7.00;99.90;;;;;;5015321;28;20034;-82
2022/04/27 03:16:25;;;;;;;13.70;7.35;;;7.00;99.90;;;;;;4998924;28;20049;-80
2022/04/27 03:18:51;;;;;;;15.80;6.93;;;7.10;99.90;;;;;;5016557;28;20072;-80
2022/04/27 03:21:16;;;;;;;13.93;7.60;;;7.10;99.90;;;;;;5016380;28;20037;-81
2022/04/27 03:23:42;;;;;;;14.40;7.20;;;7.20;99.90;;;;;;5015184;28;20045;-82
2022/04/27 03:26:08;;;;;;;15.02;7.25;;;7.10;99.90;;;;;;5016461;28;20037;-81
2022/04/27 03:28:33;;;;;;;12.77;7.20;;;7.20;99.90;;;;;;5014882;28;20084;-81
2022/04/27 03:30:59;;;;;;;12.52;7.15;;;7.20;99.90;;;;;;4998767;28;20046;-82
2022/04/27 03:33:24;;;;;;;13.43;7.60;;;7.30;99.90;;;;;;5015072;28;20208;-82
2022/04/27 03:35:50;;;;;;;15.88;7.47;;;7.30;99.90;;;;;;5015167;28;20056;-80
2022/04/27 03:38:18;;;;;;;13.57;6.78;;;7.30;99.90;;;;;;5014906;28;20100;-81
2022/04/27 03:40:46;;;;;;;14.25;6.57;;;7.30;99.90;;;;;;5014561;28;20042;-82
2022/04/27 03:43:12;;;;;;;12.85;7.40;;;7.30;99.90;;;;;;4998882;28;20413;-81
2022/04/27 03:45:37;;;;;;;10.60;6.40;;;7.40;99.90;;;;;;5014720;28;20099;-80
2022/04/27 03:48:03;;;;;;;12.60;7.38;;;7.40;99.90;;;;;;5015907;28;20397;-82
2022/04/27 03:50:29;;;;;;;11.30;6.95;;;7.40;99.90;;;;;;5014605;28;20103;-81
2022/04/27 03:52:55;;;;;;;13.93;7.78;;;7.40;99.90;;;;;;5016186;28;20448;-82
2022/04/27 03:55:20;;;;;;;11.00;7.68;;;7.30;99.90;;;;;;5016526;28;20502;-80
2022/04/27 03:57:46;;;;;;;11.50;8.02;;;7.30;99.90;;;;;;5014578;28;20046;-81
2022/04/27 04:00:12;;;;;;;13.98;7.63;;;7.30;99.90;;;;;;5015225;28;20080;-79
2022/04/27 04:02:38;;;;;;;14.05;8.15;;;7.20;99.90;;;;;;4998242;28;20038;-81
2022/04/27 04:05:07;;;;;;;11.88;7.95;;;7.20;99.90;;;;;;5014865;28;20034;-81
2022/04/27 04:07:33;;;;;;;15.90;7.72;;;7.20;99.90;;;;;;5014646;28;20049;-81
2022/04/27 04:09:59;;;;;;;14.13;7.85;;;7.20;99.90;;;;;;5014684;28;20077;-80
2022/04/27 04:12:25;;;;;;;14.35;7.80;;;7.20;99.90;;;;;;5014284;28;20054;-79
2022/04/27 04:14:52;;;;;;;13.63;7.68;;;7.20;99.90;;;;;;5014591;28;20088;-80
2022/04/27 04:17:18;;;;;;;16.10;7.90;;;7.20;99.90;;;;;;5014224;28;20045;-80
2022/04/27 04:19:44;;;;;;;12.40;7.03;;;7.30;99.90;;;;;;5014468;28;20038;-81
2022/04/27 04:22:09;;;;;;;12.05;7.47;;;7.30;99.90;;;;;;5014519;28;20037;-81
2022/04/27 04:24:35;;;;;;;11.23;7.35;;;7.30;99.90;;;;;;5014525;28;20493;-82
2022/04/27 04:29:47;;;;;;;11.38;6.93;;;7.40;99.90;;;;;;5015727;28;20072;-80
2022/04/27 04:32:12;;;;;;;10.88;6.43;;;7.40;99.90;;;;;;5014136;28;20445;-80
2022/04/27 04:34:38;;;;;;;11.88;7.38;;;7.40;99.90;;;;;;5014929;28;20096;-82
2022/04/27 04:37:04;;;;;;;14.30;8.00;;;7.40;99.90;;;;;;5015222;28;20501;-80
2022/04/27 04:39:29;;;;;;;12.57;7.50;;;7.40;99.90;;;;;;5014034;28;20046;-79
2022/04/27 04:41:55;;;;;;;12.00;7.50;;;7.40;99.90;;;;;;5014222;28;20088;-81
2022/04/27 04:44:20;;;;;;;13.15;7.53;;;7.40;99.90;;;;;;5013967;28;20038;-79
2022/04/27 04:46:46;;;;;;;13.75;8.15;;;7.40;99.90;;;;;;5014974;28;20041;-82
2022/04/27 04:49:12;;;;;;;13.30;6.78;;;7.40;99.90;;;;;;5015481;28;20113;-81
2022/04/27 04:51:38;;;;;;;13.10;7.65;;;7.40;99.90;;;;;;5013945;28;20362;-81
2022/04/27 04:54:04;;;;;;;16.38;7.95;;;7.40;99.90;;;;;;5015436;28;20030;-81
2022/04/27 04:56:30;;;;;;;12.52;7.35;;;7.40;99.90;;;;;;5015054;28;20042;-80
2022/04/27 04:58:55;;;;;;;15.68;7.53;;;7.40;99.90;;;;;;5013484;28;20048;-82
2022/04/27 05:01:21;;;;;;;14.15;6.40;;;7.50;99.90;;;;;;5013331;28;20422;-81
2022/04/27 05:03:47;;;;;;;10.23;6.45;;;7.40;99.90;;;;;;5013331;28;20066;-82
2022/04/27 05:06:12;;;;;;;15.15;7.13;;;7.50;99.90;;;;;;5013249;28;20038;-81
2022/04/27 05:08:38;;;;;;;11.35;7.15;;;7.50;99.90;;;;;;5013420;28;20049;-81
2022/04/27 05:11:04;;;;;;;10.95;5.72;;;7.60;99.90;;;;;;5013404;28;20042;-82
2022/04/27 05:13:29;;;;;;;8.43;5.50;;;7.60;99.90;;;;;;5013852;28;20084;-82
2022/04/27 05:15:56;;;;;;;8.40;5.40;;;7.70;99.90;;;;;;4996935;28;20049;-82
2022/04/27 05:18:22;;;;;;;8.82;5.22;;;7.70;99.90;;;;;;5013025;28;20103;-82
2022/04/27 05:20:48;;;;;;;8.70;4.80;;;7.80;99.90;;;;;;5013216;28;20125;-83
2022/04/27 05:23:13;;;;;;;9.23;5.18;;;7.70;99.90;;;;;;5013262;28;20046;-82
2022/04/27 05:25:40;;;;;;;10.57;5.43;;;7.80;99.90;;;;;;5012756;28;20053;-81
2022/04/27 05:28:06;;;;;;;8.07;5.10;;;7.80;99.90;;;;;;5013016;28;20045;-81
2022/04/27 05:33:17;;;;;;;7.88;4.53;;;7.80;99.90;;;;;;5012793;28;20049;-81
2022/04/27 05:35:44;;;;;;;11.48;4.95;;;7.90;99.90;;;;;;5013198;28;20151;-82
2022/04/27 05:38:10;;;;;;;7.60;4.43;;;7.90;99.90;;;;;;5012807;28;20128;-82
2022/04/27 05:40:37;;;;;;;6.60;3.40;;;8.00;99.90;;;;;;5012580;28;20089;-80
2022/04/27 05:43:05;;;;;;;3.45;1.73;;;8.00;99.90;;;;;;4997496;28;20037;-82
2022/04/27 05:45:33;;;;;;;4.57;1.60;;;8.10;99.90;;;;;;5012489;28;20092;-81
2022/04/27 05:47:59;;;;;;;6.40;2.90;;;8.20;99.90;;;;;;5014541;28;20034;-82
2022/04/27 05:50:25;;;;;;;6.75;2.78;;;8.30;99.90;;;;;;5012728;28;20104;-82
2022/04/27 05:52:52;;;;;;;4.93;2.95;;;8.30;99.90;;;;;;5014181;28;20371;-82
2022/04/27 05:55:19;;;;;;;9.05;3.30;;;8.30;99.90;;;;;;5012729;28;20055;-81
2022/04/27 05:57:45;;;;;;;6.47;3.60;;;8.40;99.90;;;;;;5013939;28;20052;-82
2022/04/27 06:00:12;;;;;;;9.05;3.78;;;8.40;99.90;;;;;;5012848;28;20161;-81
2022/04/27 06:02:38;;;;;;;7.40;3.60;;;8.40;99.90;;;;;;5013750;28;20038;-81
2022/04/27 06:05:05;;;;;;;6.85;3.38;;;8.40;99.90;;;;;;5012815;28;20065;-80
2022/04/27 06:07:31;;;;;;;7.80;4.20;;;8.50;99.90;;;;;;5012357;28;20045;-82
2022/04/27 06:09:56;;;;;;;7.97;3.10;;;8.50;99.90;;;;;;5012633;28;20406;-81
2022/04/27 06:12:30;;;;;;;9.80;5.45;;;8.50;99.90;;;;;;5012746;28;20045;-81
2022/04/27 06:14:55;;;;;;;7.70;3.80;;;8.50;99.90;;;;;;5012799;28;20053;-82
2022/04/27 06:17:21;;;;;;;7.82;3.13;;;8.60;99.90;;;;;;5012370;28;20042;-82
2022/04/27 06:19:47;;;;;;;4.43;2.80;;;8.60;99.90;;;;;;5012421;28;20030;-81
2022/04/27 06:22:12;;;;;;;6.22;3.00;;;8.70;99.90;;;;;;5014065;28;20129;-82
2022/04/27 06:24:38;;;;;;;5.72;3.03;;;8.70;99.90;;;;;;5012189;28;20037;-81
2022/04/27 06:27:04;;;;;;;7.10;2.92;;;8.80;99.90;;;;;;5012455;28;20048;-81
2022/04/27 06:29:29;;;;;;;5.43;2.70;;;8.80;99.90;;;;;;5012365;28;20038;-81
2022/04/27 06:31:55;;;;;;;5.80;2.95;;;8.90;99.90;;;;;;5013485;28;20073;-81
2022/04/27 06:34:20;;;;;;;7.13;2.88;;;8.90;99.90;;;;;;5013536;28;20076;-81
2022/04/27 06:36:46;;;;;;;7.55;2.75;;;9.00;99.90;;;;;;5012241;28;20037;-82
2022/04/27 06:39:14;;;;;;;4.55;2.60;;;9.00;99.90;;;;;;5012106;28;20038;-82
2022/04/27 06:41:41;;;;;;;7.28;2.78;;;9.00;99.90;;;;;;5011982;28;20049;-82
2022/04/27 06:44:07;;;;;;;6.63;2.55;;;9.10;99.90;;;;;;5017179;28;20390;-80
2022/04/27 06:46:32;;;;;;;5.13;2.45;;;9.20;99.90;;;;;;5016464;28;20045;-81
2022/04/27 06:48:58;;;;;;;6.22;2.58;;;9.20;99.90;;;;;;5017546;28;20045;-80
2022/04/27 06:51:24;;;;;;;6.38;2.38;;;9.30;99.90;;;;;;4999529;28;20038;-81
2022/04/27 06:53:50;;;;;;;5.40;2.30;;;9.30;99.90;;;;;;5015889;28;20050;-82
2022/04/27 06:56:16;;;;;;;6.43;3.10;;;9.40;99.90;;;;;;5015611;28;20060;-82
2022/04/27 06:58:42;;;;;;;5.78;3.00;;;9.40;99.90;;;;;;5015867;28;20502;-82
2022/04/27 07:01:08;;;;;;;5.40;2.78;;;9.50;99.90;;;;;;5015651;28;20052;-82
2022/04/27 07:03:36;;;;;;;5.35;2.50;;;9.50;99.90;;;;;;5017158;28;20033;-81
2022/04/27 07:06:02;;;;;;;5.30;2.70;;;9.50;99.90;;;;;;5017060;28;20129;-83
2022/04/27 07:08:29;;;;;;;5.70;2.55;;;9.50;99.90;;;;;;5016991;28;20034;-81
2022/04/27 07:10:55;;;;;;;4.97;2.63;;;9.50;99.90;;;;;;5016915;28;20442;-80
2022/04/27 07:13:23;;;;;;;7.88;2.80;;;9.60;99.90;;;;;;5015867;28;20042;-81
2022/04/27 07:15:49;;;;;;;6.30;2.80;;;9.60;99.90;;;;;;5017217;28;20393;-81
2022/04/27 07:18:14;;;;;;;5.55;2.20;;;9.60;99.90;;;;;;5015442;28;20045;-82
2022/04/27 07:20:40;;;;;;;4.18;1.85;;;9.70;99.90;;;;;;5016397;28;20492;-81
2022/04/27 07:23:06;;;;;;;6.22;1.90;;;9.70;99.90;;;;;;5015201;28;20042;-81
2022/04/27 07:25:32;;;;;;;6.47;3.70;;;9.70;99.90;;;;;;5015387;28;20042;-82
2022/04/27 07:27:57;;;;;;;6.63;3.17;;;9.80;99.90;;;;;;5014967;28;20048;-80
2022/04/27 07:30:23;;;;;;;6.25;3.28;;;9.80;99.90;;;;;;4998536;28;20045;-80
2022/04/27 07:32:49;;;;;;;9.40;3.25;;;9.80;99.90;;;;;;5016489;28;20187;-82
2022/04/27 07:35:18;;;;;;;11.93;3.30;;;9.80;99.90;;;;;;5015617;28;20045;-81
2022/04/27 07:37:44;;;;;;;7.55;2.80;;;9.80;99.90;;;;;;5015466;28;20042;-81
2022/04/27 07:40:11;;;;;;;6.18;3.00;;;9.90;99.90;;;;;;5015657;28;20092;-81
2022/04/27 07:42:37;;;;;;;6.63;2.60;;;9.90;99.90;;;;;;5016468;28;20042;-81
2022/04/27 07:45:05;;;;;;;4.43;2.03;;;10.00;99.90;;;;;;5015327;28;20038;-82
2022/04/27 07:47:42;;;;;;;4.53;1.98;;;10.00;99.90;;;;;;5014961;28;20088;-79
2022/04/27 07:50:10;;;;;;;6.15;1.85;;;10.10;99.90;;;;;;5016279;28;20449;-80
2022/04/27 07:52:36;;;;;;;5.78;2.28;;;10.10;99.90;;;;;;5014421;28;20049;-83
2022/04/27 07:55:01;;;;;;;3.63;1.83;;;10.20;99.90;;;;;;5016338;28;20037;-83
2022/04/27 07:57:31;;;;;;;7.18;2.00;;;10.30;99.90;;;;;;5016454;28;20042;-82
2022/04/27 07:59:57;;;;;;;4.07;1.40;;;10.30;99.90;;;;;;5016363;28;20045;-81
2022/04/27 08:02:23;;;;;;;4.75;1.33;;;10.40;99.90;;;;;;5015033;28;20115;-82
2022/04/27 08:04:49;;;;;;;4.07;1.90;;;10.50;99.90;;;;;;5015076;28;20117;-80
2022/04/27 08:07:15;;;;;;;3.92;1.60;;;10.50;99.90;;;;;;5015080;28;20046;-80
2022/04/27 08:09:40;;;;;;;4.72;2.08;;;10.60;99.90;;;;;;4998532;28;20069;-83
2022/04/27 08:12:06;;;;;;;2.40;1.27;;;10.60;99.90;;;;;;5014740;28;20053;-82
2022/04/27 08:14:33;;;;;;;5.20;1.65;;;10.60;99.90;;;;;;5009410;28;20084;-82
2022/04/27 08:17:01;;;;;;;5.68;1.98;;;10.60;99.90;;;;;;5033385;28;20056;-82
2022/04/27 08:19:26;;;;;;;4.05;1.52;;;10.60;99.90;;;;;;5015883;28;20050;-82
2022/04/27 08:21:54;;;;;;;4.95;1.70;;;10.70;99.90;;;;;;5015919;28;20045;-81
2022/04/27 08:24:21;;;;;;;8.48;2.40;;;10.70;99.90;;;;;;5014347;28;20124;-83
2022/04/27 08:26:47;;;;;;;5.25;2.00;;;10.80;99.90;;;;;;5014247;28;20057;-82
2022/04/27 08:29:13;;;;;;;6.97;2.40;;;10.80;99.90;;;;;;5014302;28;20042;-81
2022/04/27 08:31:38;;;;;;;7.28;2.40;;;10.80;99.90;;;;;;5015390;28;20060;-83
2022/04/27 08:34:04;;;;;;;8.60;2.10;;;10.80;99.90;;;;;;5014804;28;20037;-81
2022/04/27 08:36:31;;;;;;;8.98;2.85;;;10.90;99.90;;;;;;5015006;28;20048;-81
2022/04/27 08:38:57;;;;;;;5.10;2.30;;;10.80;99.90;;;;;;4998174;28;20117;-81
2022/04/27 08:41:24;;;;;;;6.85;3.10;;;11.00;99.90;;;;;;5013875;28;20038;-82
2022/04/27 08:43:50;;;;;;;6.00;2.65;;;11.00;99.90;;;;;;5013665;28;20046;-83
2022/04/27 08:46:15;;;;;;;6.97;2.75;;;11.00;99.90;;;;;;5015330;28;20081;-81
2022/04/27 08:48:48;;;;;;;4.80;2.33;;;11.00;99.90;;;;;;5013765;28;20071;-82
2022/04/27 08:51:14;;;;;;;8.10;2.65;;;11.10;99.90;;;;;;5013941;28;20046;-81
2022/04/27 08:53:42;;;;;;;6.10;2.45;;;11.10;99.90;;;;;;5013710;28;20409;-83
2022/04/27 08:56:07;;;;;;;5.45;2.83;;;11.10;99.90;;;;;;5014278;28;20045;-81
2022/04/27 08:58:33;;;;;;;5.78;2.60;;;11.00;99.90;;;;;;5014017;28;20091;-80
2022/04/27 09:00:59;;;;;;;7.18;2.67;;;11.00;99.90;;;;;;5015287;28;20121;-82
2022/04/27 09:03:33;;;;;;;10.77;3.97;;;11.00;99.90;;;;;;5014058;28;20107;-81
2022/04/27 09:06:01;;;;;;;11.00;4.20;;;10.90;99.90;;;;;;5013819;28;20111;-82
2022/04/27 09:08:38;;;;;;;6.93;3.88;;;10.90;99.90;;;;;;5013444;28;20050;-82
2022/04/27 09:11:20;;;;;;;8.85;3.53;;;11.00;99.90;;;;;;5013648;28;20049;-83
2022/04/27 09:13:50;;;;;;;10.88;3.15;;;10.90;99.90;;;;;;5014316;28;20080;-82
2022/04/27 09:16:18;;;;;;;7.78;3.05;;;11.00;99.90;;;;;;5013654;28;20135;-80
2022/04/27 09:21:31;;;;;;;13.30;3.70;;;11.10;99.90;;;;;;5013443;28;20092;-82
2022/04/27 09:24:05;;;;;;;7.65;3.50;;;11.20;99.90;;;;;;5014769;28;20034;-81
2022/04/27 09:26:31;;;;;;;11.07;3.47;;;11.20;99.90;;;;;;5013286;28;20041;-81
2022/04/27 09:28:59;;;;;;;11.52;3.80;;;11.20;99.90;;;;;;5013484;28;20046;-82
2022/04/27 09:31:29;;;;;;;9.70;3.42;;;11.30;99.90;;;;;;5013119;28;20050;-81
2022/04/27 09:33:59;;;;;;;6.47;3.00;;;11.40;99.90;;;;;;5014454;28;20049;-83
2022/04/27 09:36:25;;;;;;;10.35;3.50;;;11.50;99.90;;;;;;5013140;28;20054;-82
2022/04/27 09:38:52;;;;;;;8.63;3.10;;;11.70;99.90;;;;;;5013092;28;20104;-82
2022/04/27 09:41:44;;;;;;;10.82;3.35;;;11.80;99.90;;;;;;5014458;28;20548;-83
2022/04/27 09:44:30;;;;;;;6.13;2.13;;;11.90;99.90;;;;;;4977050;28;20046;-83
2022/04/27 09:46:56;;;;;;;12.93;3.15;;;12.00;99.90;;;;;;4996792;28;20046;-83
2022/04/27 09:49:21;;;;;;;11.10;3.20;;;11.90;99.90;;;;;;5013281;28;20104;-81
2022/04/27 09:51:49;;;;;;;11.02;3.30;;;11.90;99.90;;;;;;5012942;28;20561;-83
2022/04/27 09:54:28;;;;;;;10.63;2.90;;;12.00;99.90;;;;;;5013051;28;20129;-80
2022/04/27 09:56:56;;;;;;;9.45;2.90;;;12.00;99.90;;;;;;5013028;28;20045;-82
2022/04/27 09:59:30;;;;;;;9.32;2.60;;;12.10;99.90;;;;;;5014563;28;20425;-80
2022/04/27 10:02:00;;;;;;;9.93;2.90;;;12.10;99.90;;;;;;5014128;28;20440;-80
2022/04/27 10:04:28;;;;;;;9.50;3.08;;;12.10;99.90;;;;;;5013108;28;20076;-83
2022/04/27 10:07:00;;;;;;;10.80;3.42;;;12.20;99.90;;;;;;5012929;28;20439;-81
2022/04/27 10:09:27;;;;;;;10.07;3.03;;;12.20;99.90;;;;;;5014961;28;20089;-82
2022/04/27 10:11:55;;;;;;;9.35;3.17;;;12.40;99.90;;;;;;5012771;28;20053;-82
2022/04/27 10:14:22;;;;;;;8.55;2.65;;;12.30;99.90;;;;;;5013147;28;20045;-80
2022/04/27 10:16:48;;;;;;;8.43;2.95;;;12.30;99.90;;;;;;5011743;28;20084;-82
2022/04/27 10:19:15;;;;;;;9.50;3.05;;;12.40;99.90;;;;;;5013885;28;20049;-80
2022/04/27 10:21:59;;;;;;;7.90;2.92;;;12.50;99.90;;;;;;5013869;28;20042;-82
2022/04/27 10:24:33;;;;;;;9.30;2.75;;;12.60;99.90;;;;;;5012523;28;20168;-81
2022/04/27 10:27:21;;;;;;;10.87;2.70;;;12.90;99.90;;;;;;5012404;28;20478;-82
2022/04/27 10:30:03;;;;;;;4.65;2.28;;;13.10;99.90;;;;;;5013975;28;20281;-81
2022/04/27 10:32:41;;;;;;;11.50;2.80;;;13.10;99.90;;;;;;5013561;28;20045;-80
2022/04/27 10:35:12;;;;;;;10.18;3.25;;;13.40;99.90;;;;;;5011755;28;20081;-82
2022/04/27 10:37:44;;;;;;;7.53;2.42;;;13.80;99.90;;;;;;4996123;28;20385;-80
2022/04/27 10:40:32;;;;;;;9.05;2.90;;;14.10;99.90;;;;;;5013248;28;20042;-82
2022/04/27 10:43:07;;;;;;;8.52;2.75;;;14.30;99.90;;;;;;5011628;28;20038;-81
2022/04/27 10:45:41;;;;;;;8.15;2.83;;;14.50;99.90;;;;;;5011652;28;20073;-82
2022/04/27 10:48:14;;;;;;;8.20;2.65;;;14.50;99.90;;;;;;5013346;28;20113;-82
2022/04/27 10:50:39;;;;;;;11.65;2.97;;;14.50;99.90;;;;;;5012799;28;20564;-83
2022/04/27 10:53:41;;;;;;;8.25;2.63;;;14.40;99.90;;;;;;5011989;28;20057;-83
2022/04/27 10:56:26;;;;;;;10.10;2.63;;;14.30;99.90;;;;;;4936553;29;20087;-82
2022/04/27 10:58:53;;;;;;;9.43;3.03;;;14.00;99.90;;;;;;5007097;28;20521;-82
2022/04/27 11:01:25;;;;;;;7.72;2.22;;;13.90;99.90;;;;;;5011412;28;20096;-80
2022/04/27 11:04:06;;;;;;;8.07;2.05;;;13.80;99.90;;;;;;5013492;28;20038;-82
2022/04/27 11:07:00;;;;;;;10.93;3.08;;;13.60;99.90;;;;;;5012756;28;20053;-81
2022/04/27 11:09:58;;;;;;;8.85;3.17;;;13.60;99.90;;;;;;5012347;28;20052;-84
2022/04/27 11:12:25;;;;;;;6.88;2.63;;;13.20;99.90;;;;;;5011885;28;20042;-83
2022/04/27 11:14:58;;;;;;;8.88;2.85;;;13.20;99.90;;;;;;5012505;28;20038;-82
2022/04/27 11:17:30;;;;;;;10.52;3.08;;;13.00;99.90;;;;;;5012731;28;20044;-84
2022/04/27 11:19:56;;;;;;;8.55;2.75;;;12.70;99.90;;;;;;5012808;28;20101;-83
2022/04/27 11:22:22;;;;;;;9.70;2.75;;;12.40;99.90;;;;;;5013670;28;20112;-82
2022/04/27 11:24:49;;;;;;;9.65;2.60;;;12.50;99.90;;;;;;5013105;28;20053;-81
2022/04/27 11:27:27;;;;;;;11.45;3.55;;;12.50;99.90;;;;;;5012130;28;20097;-83
2022/04/27 11:29:54;;;;;;;10.63;2.85;;;12.50;99.90;;;;;;5016461;28;20041;-83
2022/04/27 11:32:20;;;;;;;10.43;3.55;;;12.40;99.90;;;;;;5015503;28;20038;-83
2022/04/27 11:34:49;;;;;;;9.05;2.67;;;12.30;99.90;;;;;;5015584;28;20099;-82
2022/04/27 11:37:19;;;;;;;11.45;2.90;;;12.30;99.90;;;;;;5015287;28;20120;-83
2022/04/27 11:39:46;;;;;;;8.98;2.65;;;12.30;99.90;;;;;;5017757;28;20357;-80
2022/04/27 11:42:13;;;;;;;8.55;2.65;;;12.10;99.90;;;;;;5016510;28;20367;-81
2022/04/27 11:44:43;;;;;;;9.82;3.33;;;12.10;99.90;;;;;;5016637;28;20034;-82
2022/04/27 11:47:28;;;;;;;8.98;2.80;;;12.00;99.90;;;;;;5015375;28;20038;-82
2022/04/27 11:49:58;;;;;;;11.10;3.13;;;12.10;99.90;;;;;;5015290;28;20050;-82
2022/04/27 11:52:25;;;;;;;9.30;3.35;;;12.20;99.90;;;;;;5014771;28;20041;-82
2022/04/27 11:54:50;;;;;;;8.00;3.08;;;12.30;99.90;;;;;;5015393;28;20421;-81
2022/04/27 11:57:21;;;;;;;11.30;3.45;;;12.30;99.90;;;;;;5015379;28;20037;-84
2022/04/27 11:59:57;;;;;;;9.18;2.67;;;12.30;99.90;;;;;;5015230;28;20038;-81
2022/04/27 12:02:25;;;;;;;11.35;2.88;;;12.50;99.90;;;;;;5016157;28;20501;-83
2022/04/27 12:04:55;;;;;;;9.07;2.80;;;12.70;99.90;;;;;;5016701;28;20124;-81
2022/04/27 12:07:21;;;;;;;9.93;2.85;;;12.70;99.90;;;;;;5016461;28;20131;-83
2022/04/27 12:10:00;;;;;;;10.13;2.95;;;12.70;99.90;;;;;;5014889;28;20038;-82
2022/04/27 12:12:28;;;;;;;6.75;2.35;;;12.80;99.90;;;;;;5014713;28;20042;-82
2022/04/27 12:14:55;;;;;;;10.82;3.15;;;13.00;99.90;;;;;;5014701;28;20092;-84
2022/04/27 12:17:39;;;;;;;13.40;3.20;;;13.00;99.90;;;;;;5016088;28;20044;-80
2022/04/27 12:20:06;;;;;;;9.70;3.50;;;13.20;99.90;;;;;;5016133;28;20442;-80
2022/04/27 12:22:32;;;;;;;10.82;3.30;;;13.20;99.90;;;;;;5015967;28;20117;-81
2022/04/27 12:25:05;;;;;;;10.63;3.28;;;13.20;99.90;;;;;;5014811;28;20144;-85
2022/04/27 12:27:30;;;;;;;10.15;2.70;;;13.10;99.90;;;;;;5014945;28;20081;-82
2022/04/27 12:30:06;;;;;;;13.38;3.72;;;13.20;99.90;;;;;;5015699;28;20042;-84
2022/04/27 12:32:32;;;;;;;11.63;3.55;;;13.30;99.90;;;;;;5014100;28;20120;-82
2022/04/27 12:37:50;;;;;;;12.43;3.08;;;13.50;99.90;;;;;;5014071;28;20050;-80
2022/04/27 12:40:16;;;;;;;11.18;3.63;;;13.50;99.90;;;;;;5012999;28;20042;-83
2022/04/27 12:42:59;;;;;;;13.35;3.13;;;13.40;99.90;;;;;;5015487;28;20121;-80
2022/04/27 12:45:26;;;;;;;10.35;3.70;;;13.30;99.90;;;;;;5014028;28;20041;-80
2022/04/27 12:47:51;;;;;;;8.80;2.70;;;13.30;99.90;;;;;;4997971;28;20128;-80
2022/04/27 12:50:17;;;;;;;10.98;3.33;;;13.20;99.90;;;;;;5015037;28;20081;-82
2022/04/27 12:52:44;;;;;;;7.32;2.95;;;13.10;99.90;;;;;;5014808;28;20056;-82
2022/04/27 12:55:12;;;;;;;8.00;3.20;;;13.00;99.90;;;;;;5015966;28;20046;-82
2022/04/27 12:57:49;;;;;;;9.10;3.63;;;12.90;99.90;;;;;;5021389;28;20396;-81
2022/04/27 13:00:35;;;;;;;8.40;2.58;;;12.90;99.90;;;;;;5022755;28;20402;-82
2022/04/27 13:03:01;;;;;;;11.82;2.47;;;12.90;99.90;;;;;;5026753;28;20486;-81
2022/04/27 13:05:27;;;;;;;8.60;3.13;;;12.90;99.90;;;;;;5026067;28;20042;-83
2022/04/27 13:07:52;;;;;;;12.15;2.72;;;12.90;99.90;;;;;;5017895;28;20030;-81
2022/04/27 13:13:11;;;;;;;13.07;2.80;;;12.90;99.90;;;;;;4993100;28;20046;-81
2022/04/27 13:15:36;;;;;;;9.18;2.63;;;13.00;99.90;;;;;;5016294;28;20398;-82
2022/04/27 13:18:02;;;;;;;15.88;2.83;;;12.90;99.90;;;;;;4997356;28;20046;-80
2022/04/27 13:20:27;;;;;;;9.93;3.58;;;12.80;99.90;;;;;;5013331;28;20042;-81
2022/04/27 13:22:53;;;;;;;10.75;2.67;;;12.70;99.90;;;;;;5013276;28;20038;-82
2022/04/27 13:25:19;;;;;;;9.00;2.70;;;12.70;99.90;;;;;;5013697;28;20042;-82
2022/04/27 13:27:44;;;;;;;11.30;2.50;;;12.60;99.90;;;;;;5015072;28;20046;-82
2022/04/27 13:30:10;;;;;;;10.82;2.42;;;12.60;99.90;;;;;;5012871;28;20042;-81
2022/04/27 13:32:37;;;;;;;11.77;3.05;;;12.50;99.90;;;;;;5013008;28;20184;-81
2022/04/27 13:35:03;;;;;;;15.30;3.58;;;12.40;99.90;;;;;;5014196;28;20382;-81
2022/04/27 13:37:29;;;;;;;6.30;2.33;;;12.40;99.90;;;;;;5012846;28;20050;-81
2022/04/27 13:39:56;;;;;;;9.20;2.90;;;12.40;99.90;;;;;;5014161;28;20504;-83
2022/04/27 13:42:22;;;;;;;10.32;3.05;;;12.30;99.90;;;;;;5014934;28;20153;-80
2022/04/27 13:44:48;;;;;;;12.18;2.88;;;12.20;99.90;;;;;;5014933;28;20034;-83
2022/04/27 13:47:13;;;;;;;12.35;2.97;;;12.20;99.90;;;;;;5014781;28;20390;-83
2022/04/27 13:49:39;;;;;;;12.73;2.63;;;12.30;99.90;;;;;;5013610;28;20038;-82
2022/04/27 13:52:05;;;;;;;7.45;2.55;;;12.20;99.90;;;;;;5012984;28;20490;-81
2022/04/27 13:54:31;;;;;;;8.50;2.80;;;12.30;99.90;;;;;;5013499;28;20125;-82
2022/04/27 13:56:56;;;;;;;10.32;2.63;;;12.20;99.90;;;;;;5012992;28;20117;-81
2022/04/27 13:59:23;;;;;;;11.57;2.60;;;12.30;99.90;;;;;;5012902;28;20050;-82
2022/04/27 14:01:49;;;;;;;12.05;2.72;;;12.30;99.90;;;;;;5012491;28;20126;-81
2022/04/27 14:04:15;;;;;;;8.35;2.38;;;12.40;99.90;;;;;;5014446;28;20062;-81
2022/04/27 14:06:40;;;;;;;10.20;3.20;;;12.40;99.90;;;;;;5014472;28;20081;-82
2022/04/27 14:09:06;;;;;;;9.65;3.13;;;12.50;99.90;;;;;;5013170;28;20439;-81
2022/04/27 14:14:26;;;;;;;9.45;2.85;;;12.30;99.90;;;;;;4945051;28;20055;-82
2022/04/27 14:19:36;;;;;;;9.55;2.30;;;12.20;99.90;;;;;;5013253;28;20057;-81
2022/04/27 14:22:02;;;;;;;9.68;2.78;;;12.00;99.90;;;;;;5013449;28;20056;-82
2022/04/27 14:24:28;;;;;;;8.40;2.50;;;12.00;99.90;;;;;;5014396;28;20045;-81
2022/04/27 14:26:53;;;;;;;11.60;3.15;;;12.10;99.90;;;;;;5014252;28;20041;-82
2022/04/27 14:29:19;;;;;;;7.65;2.20;;;12.20;99.90;;;;;;5012944;28;20038;-82
2022/04/27 14:31:44;;;;;;;9.05;2.47;;;12.30;99.90;;;;;;4996507;28;20128;-78
2022/04/27 14:34:10;;;;;;;13.65;2.40;;;12.40;99.90;;;;;;5012900;28;20379;-80
2022/04/27 14:36:36;;;;;;;14.02;2.83;;;12.50;99.90;;;;;;5012534;28;20513;-80
2022/04/27 14:39:01;;;;;;;12.90;2.80;;;12.50;99.90;;;;;;5012803;28;20038;-81
2022/04/27 14:41:27;;;;;;;7.45;2.38;;;12.70;99.90;;;;;;5013026;28;20038;-82
2022/04/27 14:43:53;;;;;;;8.43;2.35;;;12.70;99.90;;;;;;5012870;28;20037;-82
2022/04/27 14:46:18;;;;;;;10.18;2.67;;;12.70;99.90;;;;;;5012704;28;20398;-83
2022/04/27 14:48:44;;;;;;;7.07;2.50;;;12.80;99.90;;;;;;4996424;28;20069;-83
2022/04/27 14:51:10;;;;;;;7.20;2.13;;;12.80;99.90;;;;;;5012938;28;20045;-82
2022/04/27 14:53:36;;;;;;;9.25;2.33;;;12.90;99.90;;;;;;5014432;28;20128;-84
2022/04/27 14:56:04;;;;;;;9.02;2.53;;;12.70;99.90;;;;;;5013527;28;20054;-83
2022/04/27 14:58:30;;;;;;;12.30;3.15;;;12.80;99.90;;;;;;5013672;28;20386;-84
2022/04/27 15:00:57;;;;;;;11.43;2.60;;;12.90;99.90;;;;;;5013622;28;20033;-83
2022/04/27 15:03:24;;;;;;;8.60;2.35;;;13.00;99.90;;;;;;5013256;28;20132;-83
2022/04/27 15:05:50;;;;;;;8.73;2.35;;;13.10;99.90;;;;;;5015985;28;20046;-84
2022/04/27 15:08:16;;;;;;;9.60;2.38;;;13.20;99.90;;;;;;5016506;28;20046;-84
2022/04/27 15:10:41;;;;;;;12.20;2.78;;;13.20;99.90;;;;;;5015935;28;20042;-81
2022/04/27 15:13:07;;;;;;;7.63;2.38;;;13.10;99.90;;;;;;5016473;28;20076;-86
2022/04/27 15:15:33;;;;;;;6.00;2.25;;;13.20;99.90;;;;;;5016412;28;20037;-84
2022/04/27 15:17:58;;;;;;;8.10;2.45;;;13.00;99.90;;;;;;5016137;28;20042;-84
2022/04/27 15:23:08;;;;;;;9.55;2.28;;;13.10;99.90;;;;;;5015809;28;20478;-83
2022/04/27 15:25:34;;;;;;;10.38;2.78;;;13.10;99.90;;;;;;5015558;28;20121;-82
2022/04/27 15:28:00;;;;;;;10.02;2.95;;;13.10;99.90;;;;;;5016238;28;20088;-81
2022/04/27 15:30:28;;;;;;;9.85;2.50;;;13.00;99.90;;;;;;5015564;28;20116;-83
2022/04/27 15:32:55;;;;;;;9.95;2.40;;;13.10;99.90;;;;;;5016181;28;20135;-82
2022/04/27 15:35:22;;;;;;;8.90;2.50;;;12.90;99.90;;;;;;5016054;28;20108;-82
2022/04/27 15:37:49;;;;;;;8.10;2.10;;;12.80;99.90;;;;;;5015943;28;20038;-82
2022/04/27 15:40:17;;;;;;;9.68;2.70;;;12.90;99.90;;;;;;5015691;28;20065;-83
2022/04/27 15:42:44;;;;;;;9.85;2.28;;;12.90;99.90;;;;;;5016116;28;20316;-82
2022/04/27 15:45:10;;;;;;;9.75;2.40;;;12.90;99.90;;;;;;5016334;28;20045;-79
2022/04/27 15:47:36;;;;;;;9.55;2.50;;;13.00;99.90;;;;;;5015985;28;20057;-81
2022/04/27 15:50:03;;;;;;;7.10;2.25;;;13.00;99.90;;;;;;5015426;28;20041;-83
2022/04/27 15:52:29;;;;;;;8.00;2.60;;;12.90;99.90;;;;;;5016664;28;20402;-81
2022/04/27 15:54:55;;;;;;;7.82;2.20;;;12.90;99.90;;;;;;5015190;28;20046;-82
2022/04/27 15:57:21;;;;;;;10.70;2.72;;;12.80;99.90;;;;;;5015324;28;20048;-82
2022/04/27 15:59:46;;;;;;;9.27;2.75;;;12.70;99.90;;;;;;5015033;28;20037;-81
2022/04/27 16:02:12;;;;;;;10.35;2.20;;;12.60;99.90;;;;;;5015808;28;20405;-81
2022/04/27 16:04:39;;;;;;;6.97;2.25;;;12.60;99.90;;;;;;5014279;28;20041;-83
2022/04/27 16:07:05;;;;;;;9.88;2.20;;;12.60;99.90;;;;;;5014226;28;20038;-81
2022/04/27 16:09:31;;;;;;;8.98;2.20;;;12.60;99.90;;;;;;5014169;28;20052;-79
2022/04/27 16:11:57;;;;;;;6.93;2.40;;;12.70;99.90;;;;;;5014618;28;20046;-82